sensor_id;sensor_type;location;lat;lon;timestamp;P1;durP1;ratioP1;P2;durP2;ratioP2
5612;SDS011;63463;53.586;9.928;2023-07-29T00:02:18;11.20;;;7.80;;
5612;SDS011;63463;53.586;9.928;2023-07-29T00:04:43;11.60;;;8.40;;
5612;SDS011;63463;53.586;9.928;2023-07-29T00:07:09;15.50;;;8.70;;
5612;SDS011;63463;53.586;9.928;2023-07-29T00:09:35;13.33;;;8.20;;
5612;SDS011;63463;53.586;9.928;2023-07-29T00:12:03;12.70;;;7.93;;
5612;SDS011;63463;53.586;9.928;2023-07-29T00:14:29;14.80;;;10.17;;
5612;SDS011;63463;53.586;9.928;2023-07-29T00:16:55;12.50;;;8.50;;
5612;SDS011;63463;53.586;9.928;2023-07-29T00:19:21;16.43;;;8.60;;
5612;SDS011;63463;53.586;9.928;2023-07-29T00:21:48;10.70;;;8.27;;
5612;SDS011;63463;53.586;9.928;2023-07-29T00:24:14;11.10;;;8.10;;
5612;SDS011;63463;53.586;9.928;2023-07-29T00:26:40;15.23;;;8.43;;
5612;SDS011;63463;53.586;9.928;2023-07-29T00:29:06;14.97;;;8.97;;
5612;SDS011;63463;53.586;9.928;2023-07-29T00:31:32;17.10;;;8.50;;
5612;SDS011;63463;53.586;9.928;2023-07-29T00:33:58;12.80;;;8.47;;
5612;SDS011;63463;53.586;9.928;2023-07-29T00:36:24;19.70;;;9.90;;
5612;SDS011;63463;53.586;9.928;2023-07-29T00:38:49;17.03;;;9.40;;
5612;SDS011;63463;53.586;9.928;2023-07-29T00:41:21;13.60;;;9.70;;
5612;SDS011;63463;53.586;9.928;2023-07-29T00:43:49;15.50;;;9.33;;
5612;SDS011;63463;53.586;9.928;2023-07-29T00:46:15;14.83;;;9.90;;
5612;SDS011;63463;53.586;9.928;2023-07-29T00:48:42;14.97;;;9.90;;
5612;SDS011;63463;53.586;9.928;2023-07-29T00:51:08;15.33;;;9.50;;
5612;SDS011;63463;53.586;9.928;2023-07-29T00:53:34;15.20;;;9.87;;
5612;SDS011;63463;53.586;9.928;2023-07-29T00:56:00;14.90;;;9.53;;
5612;SDS011;63463;53.586;9.928;2023-07-29T00:58:26;17.17;;;9.80;;
5612;SDS011;63463;53.586;9.928;2023-07-29T01:00:52;17.60;;;9.30;;
5612;SDS011;63463;53.586;9.928;2023-07-29T01:03:21;15.20;;;9.30;;
5612;SDS011;63463;53.586;9.928;2023-07-29T01:08:21;14.60;;;10.70;;
5612;SDS011;63463;53.586;9.928;2023-07-29T01:10:54;14.67;;;9.23;;
5612;SDS011;63463;53.586;9.928;2023-07-29T01:13:33;13.80;;;9.03;;
5612;SDS011;63463;53.586;9.928;2023-07-29T01:16:01;16.43;;;9.03;;
5612;SDS011;63463;53.586;9.928;2023-07-29T01:18:31;12.50;;;9.10;;
5612;SDS011;63463;53.586;9.928;2023-07-29T01:21:03;12.30;;;8.20;;
5612;SDS011;63463;53.586;9.928;2023-07-29T01:23:32;11.83;;;8.70;;
5612;SDS011;63463;53.586;9.928;2023-07-29T01:25:58;13.53;;;8.80;;
5612;SDS011;63463;53.586;9.928;2023-07-29T01:28:24;11.80;;;7.47;;
5612;SDS011;63463;53.586;9.928;2023-07-29T01:30:51;11.77;;;8.17;;
5612;SDS011;63463;53.586;9.928;2023-07-29T01:35:51;12.87;;;8.30;;
5612;SDS011;63463;53.586;9.928;2023-07-29T01:38:18;13.50;;;9.30;;
5612;SDS011;63463;53.586;9.928;2023-07-29T01:40:44;9.93;;;8.23;;
5612;SDS011;63463;53.586;9.928;2023-07-29T01:43:11;14.67;;;9.67;;
5612;SDS011;63463;53.586;9.928;2023-07-29T01:45:38;11.73;;;8.43;;
5612;SDS011;63463;53.586;9.928;2023-07-29T01:48:05;17.33;;;9.80;;
5612;SDS011;63463;53.586;9.928;2023-07-29T01:50:31;16.57;;;9.97;;
5612;SDS011;63463;53.586;9.928;2023-07-29T01:52:57;25.20;;;10.83;;
5612;SDS011;63463;53.586;9.928;2023-07-29T01:55:23;21.80;;;11.47;;
5612;SDS011;63463;53.586;9.928;2023-07-29T01:57:49;16.50;;;11.13;;
5612;SDS011;63463;53.586;9.928;2023-07-29T02:00:16;21.70;;;13.40;;
5612;SDS011;63463;53.586;9.928;2023-07-29T02:02:42;21.30;;;12.40;;
5612;SDS011;63463;53.586;9.928;2023-07-29T02:05:08;18.80;;;12.60;;
5612;SDS011;63463;53.586;9.928;2023-07-29T02:07:34;19.23;;;12.07;;
5612;SDS011;63463;53.586;9.928;2023-07-29T02:10:03;19.03;;;11.87;;
5612;SDS011;63463;53.586;9.928;2023-07-29T02:12:29;21.37;;;12.70;;
5612;SDS011;63463;53.586;9.928;2023-07-29T02:14:55;19.40;;;11.90;;
5612;SDS011;63463;53.586;9.928;2023-07-29T02:17:21;25.90;;;12.70;;
5612;SDS011;63463;53.586;9.928;2023-07-29T02:19:47;22.40;;;13.00;;
5612;SDS011;63463;53.586;9.928;2023-07-29T02:22:13;24.07;;;13.90;;
5612;SDS011;63463;53.586;9.928;2023-07-29T02:24:39;24.17;;;14.87;;
5612;SDS011;63463;53.586;9.928;2023-07-29T02:27:06;29.63;;;15.00;;
5612;SDS011;63463;53.586;9.928;2023-07-29T02:29:32;28.97;;;15.60;;
5612;SDS011;63463;53.586;9.928;2023-07-29T02:31:58;24.30;;;14.20;;
5612;SDS011;63463;53.586;9.928;2023-07-29T02:34:24;23.10;;;14.33;;
5612;SDS011;63463;53.586;9.928;2023-07-29T02:36:50;23.73;;;14.90;;
5612;SDS011;63463;53.586;9.928;2023-07-29T02:39:15;24.90;;;15.50;;
5612;SDS011;63463;53.586;9.928;2023-07-29T02:41:41;28.03;;;14.70;;
5612;SDS011;63463;53.586;9.928;2023-07-29T02:44:07;29.67;;;15.10;;
5612;SDS011;63463;53.586;9.928;2023-07-29T02:46:33;24.43;;;15.10;;
5612;SDS011;63463;53.586;9.928;2023-07-29T02:49:01;27.30;;;15.53;;
5612;SDS011;63463;53.586;9.928;2023-07-29T02:51:27;28.37;;;15.97;;
5612;SDS011;63463;53.586;9.928;2023-07-29T02:53:53;25.47;;;16.60;;
5612;SDS011;63463;53.586;9.928;2023-07-29T02:56:19;28.97;;;17.07;;
5612;SDS011;63463;53.586;9.928;2023-07-29T02:58:45;38.43;;;18.20;;
5612;SDS011;63463;53.586;9.928;2023-07-29T03:01:10;43.00;;;17.73;;
5612;SDS011;63463;53.586;9.928;2023-07-29T03:03:36;28.40;;;16.53;;
5612;SDS011;63463;53.586;9.928;2023-07-29T03:06:03;51.53;;;18.23;;
5612;SDS011;63463;53.586;9.928;2023-07-29T03:08:30;33.93;;;18.57;;
5612;SDS011;63463;53.586;9.928;2023-07-29T03:10:56;41.13;;;19.70;;
5612;SDS011;63463;53.586;9.928;2023-07-29T03:13:22;27.23;;;17.20;;
5612;SDS011;63463;53.586;9.928;2023-07-29T03:15:48;32.40;;;18.50;;
5612;SDS011;63463;53.586;9.928;2023-07-29T03:18:14;36.47;;;18.70;;
5612;SDS011;63463;53.586;9.928;2023-07-29T03:20:40;35.90;;;16.57;;
5612;SDS011;63463;53.586;9.928;2023-07-29T03:23:06;28.53;;;17.70;;
5612;SDS011;63463;53.586;9.928;2023-07-29T03:25:32;37.20;;;17.20;;
5612;SDS011;63463;53.586;9.928;2023-07-29T03:27:58;26.50;;;16.37;;
5612;SDS011;63463;53.586;9.928;2023-07-29T03:30:24;68.10;;;18.87;;
5612;SDS011;63463;53.586;9.928;2023-07-29T03:32:50;29.37;;;16.03;;
5612;SDS011;63463;53.586;9.928;2023-07-29T03:35:16;25.23;;;15.83;;
5612;SDS011;63463;53.586;9.928;2023-07-29T03:37:42;39.50;;;16.60;;
5612;SDS011;63463;53.586;9.928;2023-07-29T03:40:08;29.53;;;14.50;;
5612;SDS011;63463;53.586;9.928;2023-07-29T03:42:36;22.37;;;15.10;;
5612;SDS011;63463;53.586;9.928;2023-07-29T03:45:02;29.67;;;16.13;;
5612;SDS011;63463;53.586;9.928;2023-07-29T03:47:28;31.30;;;16.30;;
5612;SDS011;63463;53.586;9.928;2023-07-29T03:49:54;33.73;;;17.47;;
5612;SDS011;63463;53.586;9.928;2023-07-29T03:52:20;38.13;;;17.90;;
5612;SDS011;63463;53.586;9.928;2023-07-29T03:54:46;32.27;;;18.00;;
5612;SDS011;63463;53.586;9.928;2023-07-29T03:57:11;37.33;;;19.20;;
5612;SDS011;63463;53.586;9.928;2023-07-29T03:59:37;51.37;;;21.73;;
5612;SDS011;63463;53.586;9.928;2023-07-29T04:02:03;36.57;;;19.90;;
5612;SDS011;63463;53.586;9.928;2023-07-29T04:04:29;46.50;;;21.10;;
5612;SDS011;63463;53.586;9.928;2023-07-29T04:06:55;53.50;;;23.00;;
5612;SDS011;63463;53.586;9.928;2023-07-29T04:09:21;51.53;;;23.80;;
5612;SDS011;63463;53.586;9.928;2023-07-29T04:11:48;62.43;;;25.40;;
5612;SDS011;63463;53.586;9.928;2023-07-29T04:14:14;58.83;;;26.70;;
5612;SDS011;63463;53.586;9.928;2023-07-29T04:16:40;83.27;;;28.47;;
5612;SDS011;63463;53.586;9.928;2023-07-29T04:19:06;90.13;;;29.30;;
5612;SDS011;63463;53.586;9.928;2023-07-29T04:21:32;78.87;;;30.43;;
5612;SDS011;63463;53.586;9.928;2023-07-29T04:23:58;89.70;;;29.40;;
5612;SDS011;63463;53.586;9.928;2023-07-29T04:26:23;80.47;;;28.87;;
5612;SDS011;63463;53.586;9.928;2023-07-29T04:28:49;92.20;;;31.60;;
5612;SDS011;63463;53.586;9.928;2023-07-29T04:31:15;106.40;;;31.10;;
5612;SDS011;63463;53.586;9.928;2023-07-29T04:33:41;116.30;;;33.40;;
5612;SDS011;63463;53.586;9.928;2023-07-29T04:36:10;107.30;;;34.07;;
5612;SDS011;63463;53.586;9.928;2023-07-29T04:38:37;101.17;;;32.90;;
5612;SDS011;63463;53.586;9.928;2023-07-29T04:41:03;123.87;;;33.90;;
5612;SDS011;63463;53.586;9.928;2023-07-29T04:43:32;85.53;;;31.57;;
5612;SDS011;63463;53.586;9.928;2023-07-29T04:45:58;110.13;;;34.43;;
5612;SDS011;63463;53.586;9.928;2023-07-29T04:48:24;133.30;;;34.23;;
5612;SDS011;63463;53.586;9.928;2023-07-29T04:50:50;106.03;;;34.20;;
5612;SDS011;63463;53.586;9.928;2023-07-29T04:53:16;101.80;;;35.10;;
5612;SDS011;63463;53.586;9.928;2023-07-29T04:55:42;107.93;;;34.47;;
5612;SDS011;63463;53.586;9.928;2023-07-29T04:58:08;95.37;;;32.27;;
5612;SDS011;63463;53.586;9.928;2023-07-29T05:00:35;107.17;;;32.80;;
5612;SDS011;63463;53.586;9.928;2023-07-29T05:03:01;126.87;;;34.47;;
5612;SDS011;63463;53.586;9.928;2023-07-29T05:05:28;103.03;;;33.67;;
5612;SDS011;63463;53.586;9.928;2023-07-29T05:07:54;104.47;;;32.70;;
5612;SDS011;63463;53.586;9.928;2023-07-29T05:10:20;84.53;;;30.93;;
5612;SDS011;63463;53.586;9.928;2023-07-29T05:12:46;96.20;;;33.10;;
5612;SDS011;63463;53.586;9.928;2023-07-29T05:15:12;92.07;;;32.47;;
5612;SDS011;63463;53.586;9.928;2023-07-29T05:17:38;93.70;;;31.27;;
5612;SDS011;63463;53.586;9.928;2023-07-29T05:20:04;95.67;;;31.67;;
5612;SDS011;63463;53.586;9.928;2023-07-29T05:22:30;92.83;;;32.33;;
5612;SDS011;63463;53.586;9.928;2023-07-29T05:24:56;95.87;;;32.43;;
5612;SDS011;63463;53.586;9.928;2023-07-29T05:27:22;77.83;;;29.67;;
5612;SDS011;63463;53.586;9.928;2023-07-29T05:29:48;89.83;;;31.20;;
5612;SDS011;63463;53.586;9.928;2023-07-29T05:32:14;87.57;;;31.00;;
5612;SDS011;63463;53.586;9.928;2023-07-29T05:34:40;90.83;;;32.50;;
5612;SDS011;63463;53.586;9.928;2023-07-29T05:37:06;82.57;;;30.20;;
5612;SDS011;63463;53.586;9.928;2023-07-29T05:39:32;87.23;;;29.47;;
5612;SDS011;63463;53.586;9.928;2023-07-29T05:41:58;65.30;;;29.70;;
5612;SDS011;63463;53.586;9.928;2023-07-29T05:44:27;92.43;;;32.27;;
5612;SDS011;63463;53.586;9.928;2023-07-29T05:46:53;78.70;;;31.37;;
5612;SDS011;63463;53.586;9.928;2023-07-29T05:49:21;59.90;;;28.53;;
5612;SDS011;63463;53.586;9.928;2023-07-29T05:51:51;73.93;;;30.10;;
5612;SDS011;63463;53.586;9.928;2023-07-29T05:54:21;68.17;;;28.50;;
5612;SDS011;63463;53.586;9.928;2023-07-29T05:57:00;68.80;;;29.07;;
5612;SDS011;63463;53.586;9.928;2023-07-29T05:59:26;63.13;;;29.20;;
5612;SDS011;63463;53.586;9.928;2023-07-29T06:01:54;63.33;;;28.97;;
5612;SDS011;63463;53.586;9.928;2023-07-29T06:04:20;74.33;;;29.53;;
5612;SDS011;63463;53.586;9.928;2023-07-29T06:06:46;65.67;;;28.93;;
5612;SDS011;63463;53.586;9.928;2023-07-29T06:09:12;58.27;;;28.63;;
5612;SDS011;63463;53.586;9.928;2023-07-29T06:11:38;66.10;;;29.60;;
5612;SDS011;63463;53.586;9.928;2023-07-29T06:14:04;60.87;;;29.00;;
5612;SDS011;63463;53.586;9.928;2023-07-29T06:16:30;68.43;;;30.27;;
5612;SDS011;63463;53.586;9.928;2023-07-29T06:18:58;65.50;;;28.83;;
5612;SDS011;63463;53.586;9.928;2023-07-29T06:21:33;58.50;;;28.30;;
5612;SDS011;63463;53.586;9.928;2023-07-29T06:24:00;49.30;;;25.90;;
5612;SDS011;63463;53.586;9.928;2023-07-29T06:26:25;53.67;;;25.73;;
5612;SDS011;63463;53.586;9.928;2023-07-29T06:28:51;60.73;;;27.00;;
5612;SDS011;63463;53.586;9.928;2023-07-29T06:31:18;50.60;;;26.40;;
5612;SDS011;63463;53.586;9.928;2023-07-29T06:33:44;46.33;;;24.97;;
5612;SDS011;63463;53.586;9.928;2023-07-29T06:36:10;48.23;;;26.40;;
5612;SDS011;63463;53.586;9.928;2023-07-29T06:38:38;49.37;;;25.27;;
5612;SDS011;63463;53.586;9.928;2023-07-29T06:41:04;50.10;;;26.37;;
5612;SDS011;63463;53.586;9.928;2023-07-29T06:43:30;48.87;;;27.20;;
5612;SDS011;63463;53.586;9.928;2023-07-29T06:45:56;53.47;;;26.80;;
5612;SDS011;63463;53.586;9.928;2023-07-29T06:48:23;54.40;;;27.00;;
5612;SDS011;63463;53.586;9.928;2023-07-29T06:50:49;47.07;;;25.70;;
5612;SDS011;63463;53.586;9.928;2023-07-29T06:53:16;45.23;;;24.97;;
5612;SDS011;63463;53.586;9.928;2023-07-29T06:55:42;47.87;;;25.03;;
5612;SDS011;63463;53.586;9.928;2023-07-29T06:58:11;46.70;;;24.57;;
5612;SDS011;63463;53.586;9.928;2023-07-29T07:00:37;50.00;;;24.90;;
5612;SDS011;63463;53.586;9.928;2023-07-29T07:03:04;51.50;;;23.90;;
5612;SDS011;63463;53.586;9.928;2023-07-29T07:05:33;45.23;;;25.50;;
5612;SDS011;63463;53.586;9.928;2023-07-29T07:08:02;50.83;;;25.63;;
5612;SDS011;63463;53.586;9.928;2023-07-29T07:10:29;52.80;;;26.00;;
5612;SDS011;63463;53.586;9.928;2023-07-29T07:12:57;52.73;;;26.73;;
5612;SDS011;63463;53.586;9.928;2023-07-29T07:15:23;45.00;;;24.53;;
5612;SDS011;63463;53.586;9.928;2023-07-29T07:17:49;56.30;;;27.40;;
5612;SDS011;63463;53.586;9.928;2023-07-29T07:20:15;52.17;;;26.00;;
5612;SDS011;63463;53.586;9.928;2023-07-29T07:22:41;66.47;;;28.43;;
5612;SDS011;63463;53.586;9.928;2023-07-29T07:25:10;53.60;;;28.47;;
5612;SDS011;63463;53.586;9.928;2023-07-29T07:27:36;58.57;;;26.60;;
5612;SDS011;63463;53.586;9.928;2023-07-29T07:30:03;61.53;;;27.57;;
5612;SDS011;63463;53.586;9.928;2023-07-29T07:32:29;54.93;;;27.70;;
5612;SDS011;63463;53.586;9.928;2023-07-29T07:34:55;56.83;;;25.20;;
5612;SDS011;63463;53.586;9.928;2023-07-29T07:37:24;62.50;;;26.30;;
5612;SDS011;63463;53.586;9.928;2023-07-29T07:39:50;66.73;;;28.50;;
5612;SDS011;63463;53.586;9.928;2023-07-29T07:42:21;59.77;;;26.20;;
5612;SDS011;63463;53.586;9.928;2023-07-29T07:44:49;60.57;;;27.70;;
5612;SDS011;63463;53.586;9.928;2023-07-29T07:47:16;59.37;;;26.40;;
5612;SDS011;63463;53.586;9.928;2023-07-29T07:49:43;49.10;;;24.87;;
5612;SDS011;63463;53.586;9.928;2023-07-29T07:52:09;76.80;;;25.87;;
5612;SDS011;63463;53.586;9.928;2023-07-29T07:54:35;52.17;;;25.10;;
5612;SDS011;63463;53.586;9.928;2023-07-29T07:57:02;53.20;;;25.37;;
5612;SDS011;63463;53.586;9.928;2023-07-29T07:59:28;52.53;;;25.43;;
5612;SDS011;63463;53.586;9.928;2023-07-29T08:01:54;60.57;;;26.50;;
5612;SDS011;63463;53.586;9.928;2023-07-29T08:04:20;75.37;;;27.60;;
5612;SDS011;63463;53.586;9.928;2023-07-29T08:06:46;66.37;;;27.30;;
5612;SDS011;63463;53.586;9.928;2023-07-29T08:09:17;50.17;;;24.73;;
5612;SDS011;63463;53.586;9.928;2023-07-29T08:11:47;59.60;;;25.30;;
5612;SDS011;63463;53.586;9.928;2023-07-29T08:14:16;64.23;;;26.33;;
5612;SDS011;63463;53.586;9.928;2023-07-29T08:16:42;49.37;;;24.93;;
5612;SDS011;63463;53.586;9.928;2023-07-29T08:19:08;57.43;;;25.47;;
5612;SDS011;63463;53.586;9.928;2023-07-29T08:21:35;56.13;;;25.70;;
5612;SDS011;63463;53.586;9.928;2023-07-29T08:24:04;51.33;;;24.70;;
5612;SDS011;63463;53.586;9.928;2023-07-29T08:26:32;62.60;;;25.40;;
5612;SDS011;63463;53.586;9.928;2023-07-29T08:29:01;49.47;;;24.50;;
5612;SDS011;63463;53.586;9.928;2023-07-29T08:31:32;63.90;;;26.23;;
5612;SDS011;63463;53.586;9.928;2023-07-29T08:34:02;56.20;;;26.37;;
5612;SDS011;63463;53.586;9.928;2023-07-29T08:36:31;57.67;;;26.87;;
5612;SDS011;63463;53.586;9.928;2023-07-29T08:38:58;68.97;;;27.60;;
5612;SDS011;63463;53.586;9.928;2023-07-29T08:41:25;52.00;;;26.43;;
5612;SDS011;63463;53.586;9.928;2023-07-29T08:44:02;62.47;;;28.70;;
5612;SDS011;63463;53.586;9.928;2023-07-29T08:46:29;56.80;;;26.93;;
5612;SDS011;63463;53.586;9.928;2023-07-29T08:48:56;65.03;;;27.80;;
5612;SDS011;63463;53.586;9.928;2023-07-29T08:51:26;62.50;;;28.33;;
5612;SDS011;63463;53.586;9.928;2023-07-29T08:53:54;61.07;;;27.57;;
5612;SDS011;63463;53.586;9.928;2023-07-29T08:56:21;56.43;;;28.60;;
5612;SDS011;63463;53.586;9.928;2023-07-29T08:58:55;71.23;;;29.77;;
5612;SDS011;63463;53.586;9.928;2023-07-29T09:01:32;63.47;;;28.10;;
5612;SDS011;63463;53.586;9.928;2023-07-29T09:03:59;54.23;;;27.20;;
5612;SDS011;63463;53.586;9.928;2023-07-29T09:06:26;60.40;;;27.77;;
5612;SDS011;63463;53.586;9.928;2023-07-29T09:08:55;49.43;;;26.10;;
5612;SDS011;63463;53.586;9.928;2023-07-29T09:11:25;47.80;;;25.40;;
5612;SDS011;63463;53.586;9.928;2023-07-29T09:14:00;47.10;;;24.20;;
5612;SDS011;63463;53.586;9.928;2023-07-29T09:16:35;45.43;;;24.50;;
5612;SDS011;63463;53.586;9.928;2023-07-29T09:19:04;41.57;;;23.57;;
5612;SDS011;63463;53.586;9.928;2023-07-29T09:21:33;35.47;;;22.53;;
5612;SDS011;63463;53.586;9.928;2023-07-29T09:24:03;39.73;;;22.83;;
5612;SDS011;63463;53.586;9.928;2023-07-29T09:26:29;40.03;;;21.47;;
5612;SDS011;63463;53.586;9.928;2023-07-29T09:28:57;37.20;;;21.80;;
5612;SDS011;63463;53.586;9.928;2023-07-29T09:31:31;36.00;;;20.50;;
5612;SDS011;63463;53.586;9.928;2023-07-29T09:34:01;35.50;;;19.73;;
5612;SDS011;63463;53.586;9.928;2023-07-29T09:36:39;34.13;;;21.30;;
5612;SDS011;63463;53.586;9.928;2023-07-29T09:39:10;36.53;;;20.77;;
5612;SDS011;63463;53.586;9.928;2023-07-29T09:41:41;37.50;;;21.30;;
5612;SDS011;63463;53.586;9.928;2023-07-29T09:44:13;33.30;;;20.53;;
5612;SDS011;63463;53.586;9.928;2023-07-29T09:46:50;29.00;;;18.57;;
5612;SDS011;63463;53.586;9.928;2023-07-29T09:49:16;29.87;;;19.00;;
5612;SDS011;63463;53.586;9.928;2023-07-29T09:51:43;26.77;;;17.77;;
5612;SDS011;63463;53.586;9.928;2023-07-29T09:54:11;24.63;;;15.87;;
5612;SDS011;63463;53.586;9.928;2023-07-29T09:56:50;24.80;;;14.50;;
5612;SDS011;63463;53.586;9.928;2023-07-29T09:59:33;17.43;;;12.57;;
5612;SDS011;63463;53.586;9.928;2023-07-29T10:02:00;17.77;;;12.20;;
5612;SDS011;63463;53.586;9.928;2023-07-29T10:04:38;17.50;;;12.50;;
5612;SDS011;63463;53.586;9.928;2023-07-29T10:10:53;15.83;;;10.00;;
5612;SDS011;63463;53.586;9.928;2023-07-29T10:13:18;12.70;;;9.60;;
5612;SDS011;63463;53.586;9.928;2023-07-29T10:15:47;15.90;;;9.30;;
5612;SDS011;63463;53.586;9.928;2023-07-29T10:18:13;15.10;;;9.93;;
5612;SDS011;63463;53.586;9.928;2023-07-29T10:20:51;10.47;;;8.57;;
5612;SDS011;63463;53.586;9.928;2023-07-29T10:23:28;12.50;;;9.27;;
5612;SDS011;63463;53.586;9.928;2023-07-29T10:26:11;14.23;;;10.90;;
5612;SDS011;63463;53.586;9.928;2023-07-29T10:29:02;9.30;;;8.30;;
5612;SDS011;63463;53.586;9.928;2023-07-29T10:31:49;16.33;;;7.73;;
5612;SDS011;63463;53.586;9.928;2023-07-29T10:34:27;8.93;;;7.67;;
5612;SDS011;63463;53.586;9.928;2023-07-29T10:37:12;9.57;;;7.20;;
5612;SDS011;63463;53.586;9.928;2023-07-29T10:39:44;7.53;;;6.70;;
5612;SDS011;63463;53.586;9.928;2023-07-29T10:42:23;9.40;;;6.63;;
5612;SDS011;63463;53.586;9.928;2023-07-29T10:51:26;9.97;;;6.30;;
5612;SDS011;63463;53.586;9.928;2023-07-29T10:54:04;7.23;;;5.63;;
5612;SDS011;63463;53.586;9.928;2023-07-29T10:56:35;6.13;;;5.63;;
5612;SDS011;63463;53.586;9.928;2023-07-29T11:01:38;5.37;;;4.93;;
5612;SDS011;63463;53.586;9.928;2023-07-29T11:12:05;8.00;;;4.17;;
5612;SDS011;63463;53.586;9.928;2023-07-29T11:14:40;3.90;;;3.57;;
5612;SDS011;63463;53.586;9.928;2023-07-29T11:17:07;6.43;;;3.60;;
5612;SDS011;63463;53.586;9.928;2023-07-29T11:19:33;3.33;;;3.13;;
5612;SDS011;63463;53.586;9.928;2023-07-29T11:22:00;5.73;;;3.50;;
5612;SDS011;63463;53.586;9.928;2023-07-29T11:24:27;3.90;;;2.87;;
5612;SDS011;63463;53.586;9.928;2023-07-29T11:26:54;4.97;;;2.93;;
5612;SDS011;63463;53.586;9.928;2023-07-29T11:29:20;2.70;;;2.50;;
5612;SDS011;63463;53.586;9.928;2023-07-29T11:31:46;2.67;;;2.57;;
5612;SDS011;63463;53.586;9.928;2023-07-29T11:34:13;3.10;;;2.67;;
5612;SDS011;63463;53.586;9.928;2023-07-29T11:36:45;5.30;;;3.33;;
5612;SDS011;63463;53.586;9.928;2023-07-29T11:39:11;4.70;;;3.77;;
5612;SDS011;63463;53.586;9.928;2023-07-29T11:41:37;3.03;;;2.83;;
5612;SDS011;63463;53.586;9.928;2023-07-29T11:44:02;5.07;;;3.40;;
5612;SDS011;63463;53.586;9.928;2023-07-29T11:46:28;2.50;;;2.30;;
5612;SDS011;63463;53.586;9.928;2023-07-29T11:48:54;3.22;;;2.78;;
5612;SDS011;63463;53.586;9.928;2023-07-29T11:51:21;3.78;;;2.70;;
5612;SDS011;63463;53.586;9.928;2023-07-29T11:53:47;2.40;;;2.28;;
5612;SDS011;63463;53.586;9.928;2023-07-29T11:56:13;3.60;;;3.05;;
5612;SDS011;63463;53.586;9.928;2023-07-29T11:58:39;2.60;;;2.40;;
5612;SDS011;63463;53.586;9.928;2023-07-29T12:01:05;3.10;;;2.80;;
5612;SDS011;63463;53.586;9.928;2023-07-29T12:03:31;2.85;;;2.72;;
5612;SDS011;63463;53.586;9.928;2023-07-29T12:05:57;3.42;;;3.10;;
5612;SDS011;63463;53.586;9.928;2023-07-29T12:08:23;2.72;;;2.55;;
5612;SDS011;63463;53.586;9.928;2023-07-29T12:10:50;2.25;;;2.13;;
5612;SDS011;63463;53.586;9.928;2023-07-29T12:13:16;2.35;;;2.25;;
5612;SDS011;63463;53.586;9.928;2023-07-29T12:15:42;2.33;;;2.22;;
5612;SDS011;63463;53.586;9.928;2023-07-29T12:18:08;2.10;;;2.00;;
5612;SDS011;63463;53.586;9.928;2023-07-29T12:20:34;1.90;;;1.80;;
5612;SDS011;63463;53.586;9.928;2023-07-29T12:23:00;2.17;;;1.90;;
5612;SDS011;63463;53.586;9.928;2023-07-29T12:25:27;1.90;;;1.80;;
5612;SDS011;63463;53.586;9.928;2023-07-29T12:27:53;1.90;;;1.80;;
5612;SDS011;63463;53.586;9.928;2023-07-29T12:30:20;2.05;;;1.95;;
5612;SDS011;63463;53.586;9.928;2023-07-29T12:32:47;1.50;;;1.40;;
5612;SDS011;63463;53.586;9.928;2023-07-29T12:35:13;1.63;;;1.52;;
5612;SDS011;63463;53.586;9.928;2023-07-29T12:37:39;1.63;;;1.52;;
5612;SDS011;63463;53.586;9.928;2023-07-29T12:40:08;5.53;;;1.50;;
5612;SDS011;63463;53.586;9.928;2023-07-29T12:42:34;1.50;;;1.40;;
5612;SDS011;63463;53.586;9.928;2023-07-29T12:45:00;1.70;;;1.60;;
5612;SDS011;63463;53.586;9.928;2023-07-29T12:47:26;2.00;;;1.90;;
5612;SDS011;63463;53.586;9.928;2023-07-29T12:49:52;1.75;;;1.65;;
5612;SDS011;63463;53.586;9.928;2023-07-29T12:52:18;1.90;;;1.80;;
5612;SDS011;63463;53.586;9.928;2023-07-29T12:54:44;1.92;;;1.70;;
5612;SDS011;63463;53.586;9.928;2023-07-29T12:57:10;4.20;;;2.22;;
5612;SDS011;63463;53.586;9.928;2023-07-29T12:59:36;2.45;;;1.50;;
5612;SDS011;63463;53.586;9.928;2023-07-29T13:02:01;1.92;;;1.58;;
5612;SDS011;63463;53.586;9.928;2023-07-29T13:04:27;1.48;;;1.38;;
5612;SDS011;63463;53.586;9.928;2023-07-29T13:06:53;1.33;;;1.23;;
5612;SDS011;63463;53.586;9.928;2023-07-29T13:09:21;2.42;;;1.30;;
5612;SDS011;63463;53.586;9.928;2023-07-29T13:11:48;1.75;;;1.65;;
5612;SDS011;63463;53.586;9.928;2023-07-29T13:14:13;2.30;;;1.75;;
5612;SDS011;63463;53.586;9.928;2023-07-29T13:16:41;1.70;;;1.58;;
5612;SDS011;63463;53.586;9.928;2023-07-29T13:19:07;2.22;;;2.03;;
5612;SDS011;63463;53.586;9.928;2023-07-29T13:21:33;1.60;;;1.50;;
5612;SDS011;63463;53.586;9.928;2023-07-29T13:24:00;2.35;;;1.83;;
5612;SDS011;63463;53.586;9.928;2023-07-29T13:26:26;1.83;;;1.52;;
5612;SDS011;63463;53.586;9.928;2023-07-29T13:28:52;2.00;;;1.90;;
5612;SDS011;63463;53.586;9.928;2023-07-29T13:31:19;1.95;;;1.85;;
5612;SDS011;63463;53.586;9.928;2023-07-29T13:33:45;2.30;;;2.03;;
5612;SDS011;63463;53.586;9.928;2023-07-29T13:36:11;2.00;;;1.77;;
5612;SDS011;63463;53.586;9.928;2023-07-29T13:38:37;2.22;;;2.00;;
5612;SDS011;63463;53.586;9.928;2023-07-29T13:41:03;2.05;;;1.80;;
5612;SDS011;63463;53.586;9.928;2023-07-29T13:43:29;1.95;;;1.80;;
5612;SDS011;63463;53.586;9.928;2023-07-29T13:45:55;1.88;;;1.77;;
5612;SDS011;63463;53.586;9.928;2023-07-29T13:48:21;2.85;;;1.77;;
5612;SDS011;63463;53.586;9.928;2023-07-29T13:50:47;3.78;;;2.20;;
5612;SDS011;63463;53.586;9.928;2023-07-29T13:53:13;2.47;;;1.70;;
5612;SDS011;63463;53.586;9.928;2023-07-29T13:55:40;4.75;;;1.75;;
5612;SDS011;63463;53.586;9.928;2023-07-29T13:58:06;4.60;;;1.83;;
5612;SDS011;63463;53.586;9.928;2023-07-29T14:00:32;2.10;;;1.90;;
5612;SDS011;63463;53.586;9.928;2023-07-29T14:02:58;2.95;;;1.83;;
5612;SDS011;63463;53.586;9.928;2023-07-29T14:05:24;1.75;;;1.65;;
5612;SDS011;63463;53.586;9.928;2023-07-29T14:07:50;3.33;;;1.77;;
5612;SDS011;63463;53.586;9.928;2023-07-29T14:10:16;3.47;;;1.88;;
5612;SDS011;63463;53.586;9.928;2023-07-29T14:12:42;1.60;;;1.50;;
5612;SDS011;63463;53.586;9.928;2023-07-29T14:15:08;1.67;;;1.58;;
5612;SDS011;63463;53.586;9.928;2023-07-29T14:17:35;2.40;;;1.70;;
5612;SDS011;63463;53.586;9.928;2023-07-29T14:20:01;1.67;;;1.58;;
5612;SDS011;63463;53.586;9.928;2023-07-29T14:22:28;2.63;;;1.73;;
5612;SDS011;63463;53.586;9.928;2023-07-29T14:24:53;2.75;;;1.80;;
5612;SDS011;63463;53.586;9.928;2023-07-29T14:27:19;1.92;;;1.83;;
5612;SDS011;63463;53.586;9.928;2023-07-29T14:29:45;3.72;;;1.58;;
5612;SDS011;63463;53.586;9.928;2023-07-29T14:32:11;1.80;;;1.70;;
5612;SDS011;63463;53.586;9.928;2023-07-29T14:34:37;1.70;;;1.55;;
5612;SDS011;63463;53.586;9.928;2023-07-29T14:37:03;2.55;;;1.58;;
5612;SDS011;63463;53.586;9.928;2023-07-29T14:39:29;6.47;;;1.40;;
5612;SDS011;63463;53.586;9.928;2023-07-29T14:41:55;1.85;;;1.75;;
5612;SDS011;63463;53.586;9.928;2023-07-29T14:44:21;1.95;;;1.85;;
5612;SDS011;63463;53.586;9.928;2023-07-29T14:46:47;3.35;;;2.75;;
5612;SDS011;63463;53.586;9.928;2023-07-29T14:49:13;1.85;;;1.75;;
5612;SDS011;63463;53.586;9.928;2023-07-29T14:51:39;4.40;;;1.83;;
5612;SDS011;63463;53.586;9.928;2023-07-29T14:54:05;1.70;;;1.60;;
5612;SDS011;63463;53.586;9.928;2023-07-29T14:56:31;2.08;;;1.88;;
5612;SDS011;63463;53.586;9.928;2023-07-29T14:58:57;58.45;;;25.27;;
5612;SDS011;63463;53.586;9.928;2023-07-29T15:01:23;2.15;;;2.05;;
5612;SDS011;63463;53.586;9.928;2023-07-29T15:03:49;2.38;;;2.13;;
5612;SDS011;63463;53.586;9.928;2023-07-29T15:06:15;3.60;;;1.77;;
5612;SDS011;63463;53.586;9.928;2023-07-29T15:08:40;1.98;;;1.77;;
5612;SDS011;63463;53.586;9.928;2023-07-29T15:11:06;10.43;;;1.63;;